Time;durP1;ratioP1;P1;durP2;ratioP2;P2;SDS_P1;SDS_P2;PMS_P1;PMS_P2;Temp;Humidity;BMP_temperature;BMP_pressure;BME280_temperature;BME280_humidity;BME280_pressure;Samples;Min_cycle;Max_cycle;Signal;HPM_P1;HPM_P2
2020/12/03 00:00:28;;;;;;;20.17;8.73;;;3.10;1.00;;;;;;5074496;28;20165;-76
2020/12/03 00:02:55;;;;;;;23.85;9.20;;;3.10;1.00;;;;;;5074676;28;20167;-77
2020/12/03 00:05:21;;;;;;;20.80;8.07;;;3.00;1.00;;;;;;5074300;28;20179;-76
2020/12/03 00:07:50;;;;;;;21.67;8.93;;;3.10;1.00;;;;;;5074504;28;20183;-76
2020/12/03 00:10:16;;;;;;;25.38;9.85;;;3.00;1.00;;;;;;5074088;28;20265;-76
2020/12/03 00:12:59;;;;;;;18.97;8.00;;;3.00;1.00;;;;;;5074568;28;20198;-76
2020/12/03 00:15:24;;;;;;;22.60;9.60;;;3.00;1.00;;;;;;5075007;28;20960;-76
2020/12/03 00:17:56;;;;;;;22.50;9.07;;;3.00;1.00;;;;;;5075488;28;20199;-76
2020/12/03 00:20:26;;;;;;;19.25;8.15;;;3.00;1.00;;;;;;5074149;28;20163;-76
2020/12/03 00:22:52;;;;;;;22.58;9.35;;;3.10;1.00;;;;;;5074366;28;20167;-76
2020/12/03 00:25:20;;;;;;;23.83;9.60;;;3.00;1.00;;;;;;5091538;28;20186;-76
2020/12/03 00:27:52;;;;;;;23.20;7.97;;;3.00;1.00;;;;;;5080579;28;20470;-74
2020/12/03 00:30:19;;;;;;;25.02;10.05;;;3.00;1.00;;;;;;5081110;28;20258;-74
2020/12/03 00:32:45;;;;;;;21.45;9.02;;;;;;;;;;5085882;28;20269;-74
2020/12/03 00:35:13;;;;;;;26.67;9.90;;;3.00;1.00;;;;;;5086633;28;20183;-74
2020/12/03 00:37:39;;;;;;;18.38;8.30;;;3.00;1.00;;;;;;5074727;28;20252;-74
2020/12/03 00:40:05;;;;;;;23.95;9.30;;;3.00;1.00;;;;;;5073127;28;20167;-76
2020/12/03 00:42:31;;;;;;;22.70;9.27;;;;;;;;;;5074245;28;20162;-74
2020/12/03 00:44:57;;;;;;;19.63;8.07;;;3.10;1.00;;;;;;5085676;28;20636;-75
2020/12/03 00:47:23;;;;;;;27.97;8.40;;;;;;;;;;5089588;28;20175;-74
2020/12/03 00:49:50;;;;;;;29.55;10.07;;;3.00;1.00;;;;;;5083580;28;20591;-74
2020/12/03 00:52:15;;;;;;;26.42;8.75;;;3.00;1.00;;;;;;5094034;28;20605;-74
2020/12/03 00:54:42;;;;;;;22.50;8.60;;;3.00;1.00;;;;;;5091845;28;20174;-74
2020/12/03 00:57:32;;;;;;;26.13;9.75;;;3.00;1.00;;;;;;5082867;28;20237;-76
2020/12/03 00:59:57;;;;;;;14.95;6.18;;;3.00;1.00;;;;;;5073928;28;20170;-76
2020/12/03 01:02:32;;;;;;;20.90;9.30;;;3.00;1.00;;;;;;5073489;28;20556;-76
2020/12/03 01:04:58;;;;;;;23.73;7.85;;;2.90;1.00;;;;;;5079823;28;20166;-76
2020/12/03 01:07:26;;;;;;;23.40;8.80;;;2.90;1.00;;;;;;5080172;28;20186;-76
2020/12/03 01:10:08;;;;;;;21.92;8.95;;;2.90;1.00;;;;;;5073667;28;20670;-76
2020/12/03 01:12:34;;;;;;;21.02;8.38;;;2.90;1.00;;;;;;5074290;28;20167;-76
2020/12/03 01:15:04;;;;;;;22.50;8.13;;;2.90;1.00;;;;;;5073510;28;20174;-76
2020/12/03 01:17:39;;;;;;;22.58;8.23;;;2.80;1.00;;;;;;5073424;28;20452;-76
2020/12/03 01:20:11;;;;;;;17.48;6.88;;;2.80;1.00;;;;;;5084274;28;20181;-76
2020/12/03 01:22:38;;;;;;;17.25;7.05;;;2.90;1.00;;;;;;5073262;28;20170;-76
2020/12/03 01:25:09;;;;;;;15.82;7.85;;;2.80;1.00;;;;;;5089058;28;20199;-76
2020/12/03 01:27:35;;;;;;;21.30;7.25;;;2.90;1.00;;;;;;5073778;28;20163;-74
2020/12/03 01:30:03;;;;;;;21.10;7.60;;;2.90;1.00;;;;;;5073148;28;20167;-74
2020/12/03 01:32:32;;;;;;;18.52;8.38;;;2.80;1.00;;;;;;5073208;28;20220;-74
2020/12/03 01:34:58;;;;;;;17.52;7.10;;;2.80;1.00;;;;;;5075154;28;20167;-74
2020/12/03 01:37:23;;;;;;;16.30;7.47;;;2.80;1.00;;;;;;5075295;28;20298;-74
2020/12/03 01:39:50;;;;;;;12.20;6.20;;;2.80;1.00;;;;;;5073215;28;20163;-74
2020/12/03 01:42:32;;;;;;;17.52;7.90;;;2.80;1.00;;;;;;5073569;28;20620;-76
2020/12/03 01:45:03;;;;;;;17.63;6.88;;;2.80;1.00;;;;;;5076103;28;20178;-76
2020/12/03 01:47:37;;;;;;;15.93;7.20;;;2.80;1.00;;;;;;5073254;28;20183;-76
2020/12/03 01:50:14;;;;;;;12.82;5.70;;;2.70;1.00;;;;;;5073588;28;20515;-76
2020/12/03 01:52:40;;;;;;;18.77;7.30;;;2.80;1.00;;;;;;5085393;28;20180;-76
2020/12/03 01:55:14;;;;;;;19.93;8.30;;;2.70;1.00;;;;;;5095445;28;20261;-76
2020/12/03 01:57:55;;;;;;;19.55;7.45;;;2.70;1.00;;;;;;5085647;28;20652;-74
2020/12/03 02:00:29;;;;;;;17.85;7.03;;;2.70;1.00;;;;;;5095045;28;20188;-74
2020/12/03 02:02:55;;;;;;;19.95;6.82;;;2.70;1.00;;;;;;5097012;28;20163;-74
2020/12/03 02:05:25;;;;;;;15.30;6.55;;;2.70;1.00;;;;;;5094123;28;20257;-74
2020/12/03 02:07:52;;;;;;;16.70;6.22;;;2.80;1.00;;;;;;5076668;28;20173;-74
2020/12/03 02:10:21;;;;;;;16.77;6.55;;;2.80;1.00;;;;;;5076555;28;20179;-74
2020/12/03 02:12:47;;;;;;;13.45;6.10;;;2.80;1.00;;;;;;5077203;28;20171;-76
2020/12/03 02:15:14;;;;;;;14.95;5.57;;;2.80;1.00;;;;;;5076997;28;20187;-76
2020/12/03 02:17:56;;;;;;;19.27;7.53;;;2.80;1.00;;;;;;5076227;28;20199;-76
2020/12/03 02:20:26;;;;;;;15.32;6.70;;;2.80;1.00;;;;;;5074692;28;20183;-76
2020/12/03 02:23:19;;;;;;;12.38;5.93;;;2.70;1.00;;;;;;5076888;28;20246;-76
2020/12/03 02:25:50;;;;;;;18.50;7.13;;;2.70;1.00;;;;;;5075058;28;20550;-76
2020/12/03 02:28:16;;;;;;;13.80;6.13;;;2.80;1.00;;;;;;5076820;28;20603;-74
2020/12/03 02:30:41;;;;;;;15.13;6.90;;;2.80;1.00;;;;;;5076183;28;20182;-74
2020/12/03 02:33:20;;;;;;;18.87;6.90;;;2.80;1.00;;;;;;5076231;28;20505;-74
2020/12/03 02:35:50;;;;;;;17.05;7.00;;;2.80;1.00;;;;;;5075936;28;20602;-74
2020/12/03 02:38:16;;;;;;;19.63;6.25;;;2.70;1.00;;;;;;5088967;28;20202;-74
2020/12/03 02:40:44;;;;;;;17.77;5.87;;;2.70;1.00;;;;;;5096141;28;20287;-74
2020/12/03 02:43:28;;;;;;;13.23;6.40;;;2.70;1.00;;;;;;5096843;28;20146;-76
2020/12/03 02:45:56;;;;;;;15.23;6.90;;;2.70;1.00;;;;;;5084417;28;20171;-76
2020/12/03 02:48:32;;;;;;;15.07;6.88;;;2.70;1.00;;;;;;5083283;28;20185;-76
2020/12/03 02:50:59;;;;;;;21.90;7.97;;;2.70;1.00;;;;;;5076237;28;20513;-76
2020/12/03 02:53:32;;;;;;;20.73;7.53;;;2.80;1.00;;;;;;5075828;28;20569;-77
2020/12/03 02:56:32;;;;;;;14.77;5.85;;;2.70;1.00;;;;;;5076067;28;20194;-76
2020/12/03 02:59:04;;;;;;;13.27;5.85;;;2.70;1.00;;;;;;5085342;28;20194;-76
2020/12/03 03:01:30;;;;;;;16.05;6.95;;;2.80;1.00;;;;;;5096110;28;20196;-76
2020/12/03 03:04:04;;;;;;;13.80;6.37;;;2.80;1.00;;;;;;5093828;28;20170;-76
2020/12/03 03:06:31;;;;;;;13.48;6.90;;;2.70;1.00;;;;;;5080367;28;20421;-76
2020/12/03 03:08:57;;;;;;;10.98;4.93;;;2.70;1.00;;;;;;5074594;28;20256;-76
2020/12/03 03:11:34;;;;;;;18.30;6.47;;;2.70;1.00;;;;;;5075597;28;20213;-76
2020/12/03 03:14:08;;;;;;;15.48;5.53;;;2.70;1.00;;;;;;5076065;28;20637;-76
2020/12/03 03:16:44;;;;;;;11.90;5.30;;;2.70;1.00;;;;;;5086632;28;20617;-77
2020/12/03 03:19:16;;;;;;;10.60;5.85;;;2.70;1.00;;;;;;5092861;28;20626;-77
2020/12/03 03:21:42;;;;;;;12.43;4.80;;;2.60;1.00;;;;;;5075565;28;20171;-76
2020/12/03 03:24:08;;;;;;;19.07;5.93;;;2.70;1.00;;;;;;5075457;28;20607;-76
2020/12/03 03:26:36;;;;;;;12.57;4.78;;;2.70;1.00;;;;;;5075079;28;20231;-76
2020/12/03 03:29:03;;;;;;;13.57;5.85;;;2.60;1.00;;;;;;5075360;28;20622;-77
2020/12/03 03:31:32;;;;;;;11.75;5.13;;;2.60;1.00;;;;;;5076348;28;20183;-77
2020/12/03 03:33:58;;;;;;;12.18;5.18;;;2.70;1.00;;;;;;5092525;28;20657;-76
2020/12/03 03:36:26;;;;;;;21.63;6.50;;;2.70;1.00;;;;;;5100173;28;20190;-76
2020/12/03 03:39:04;;;;;;;11.13;5.70;;;2.70;1.00;;;;;;5107179;28;20215;-76
2020/12/03 03:41:33;;;;;;;15.85;6.10;;;2.80;1.00;;;;;;5075032;28;20523;-76
2020/12/03 03:44:09;;;;;;;13.60;6.57;;;2.80;1.00;;;;;;5076828;28;20167;-74
2020/12/03 03:46:34;;;;;;;12.30;5.43;;;2.70;1.00;;;;;;5074722;28;20216;-75
2020/12/03 03:49:03;;;;;;;11.30;5.60;;;2.70;1.00;;;;;;5086170;28;20171;-74
2020/12/03 03:51:28;;;;;;;9.13;4.75;;;2.70;1.00;;;;;;5094489;28;20174;-75
2020/12/03 03:53:54;;;;;;;12.77;5.10;;;2.80;1.00;;;;;;5092749;28;20190;-75
2020/12/03 03:56:20;;;;;;;15.00;5.97;;;2.80;1.00;;;;;;5094894;28;20404;-75
2020/12/03 03:58:46;;;;;;;17.73;6.10;;;2.80;1.00;;;;;;5094977;28;20186;-75
2020/12/03 04:01:12;;;;;;;13.43;6.40;;;2.80;1.00;;;;;;5080272;28;20899;-75
2020/12/03 04:03:38;;;;;;;15.00;7.00;;;;;;;;;;5089917;28;20178;-75
2020/12/03 04:06:03;;;;;;;10.95;5.55;;;2.80;1.00;;;;;;5077038;28;20171;-74
2020/12/03 04:08:32;;;;;;;17.20;6.40;;;;;;;;;;5074548;28;20529;-74
2020/12/03 04:10:58;;;;;;;15.00;5.65;;;2.80;1.00;;;;;;5074161;28;20859;-74
2020/12/03 04:13:25;;;;;;;17.40;6.53;;;2.80;1.00;;;;;;5073993;28;20187;-75
2020/12/03 04:15:51;;;;;;;24.35;7.70;;;2.80;1.00;;;;;;5083448;28;20174;-76
2020/12/03 04:18:22;;;;;;;14.77;6.75;;;2.80;1.00;;;;;;5094485;28;20182;-76
2020/12/03 04:20:47;;;;;;;10.35;5.10;;;2.70;1.00;;;;;;5094354;28;20351;-76
2020/12/03 04:23:13;;;;;;;18.50;5.90;;;2.70;1.00;;;;;;5076114;28;20249;-76
2020/12/03 04:25:50;;;;;;;14.90;6.37;;;2.70;1.00;;;;;;5074706;28;20151;-76
2020/12/03 04:28:17;;;;;;;18.83;6.15;;;2.70;1.00;;;;;;5080534;28;20170;-77
2020/12/03 04:30:43;;;;;;;12.70;6.57;;;2.70;1.00;;;;;;5080456;28;20175;-75
2020/12/03 04:33:14;;;;;;;14.55;6.30;;;2.70;1.00;;;;;;5080413;28;20643;-74
2020/12/03 04:35:44;;;;;;;16.80;6.57;;;2.70;1.00;;;;;;5076698;28;20186;-75
2020/12/03 04:38:26;;;;;;;16.92;5.63;;;2.70;1.00;;;;;;5073758;28;20219;-74
2020/12/03 04:40:58;;;;;;;18.52;6.22;;;2.70;1.00;;;;;;5073803;28;20179;-74
2020/12/03 04:43:32;;;;;;;16.27;5.80;;;2.70;1.00;;;;;;5074765;28;20175;-75
2020/12/03 04:46:32;;;;;;;15.80;5.35;;;2.70;1.00;;;;;;5082951;28;20169;-76
2020/12/03 04:49:24;;;;;;;14.50;6.57;;;2.70;1.00;;;;;;5094178;28;20174;-76
2020/12/03 04:52:04;;;;;;;13.65;5.65;;;2.70;1.00;;;;;;5073396;28;20262;-76
2020/12/03 04:55:11;;;;;;;20.02;7.13;;;2.60;1.00;;;;;;5073919;28;20157;-76
2020/12/03 04:57:42;;;;;;;14.18;5.20;;;2.70;1.00;;;;;;5073740;28;20202;-76
2020/12/03 05:00:20;;;;;;;28.52;6.90;;;2.70;1.00;;;;;;5083924;28;20495;-74
2020/12/03 05:03:18;;;;;;;11.52;4.85;;;2.70;1.00;;;;;;5093833;28;20161;-75
2020/12/03 05:06:15;;;;;;;12.82;5.90;;;2.70;1.00;;;;;;5086704;28;20216;-75
2020/12/03 05:09:13;;;;;;;11.93;5.15;;;2.70;1.00;;;;;;5082209;28;20280;-74
2020/12/03 05:11:53;;;;;;;14.38;5.80;;;2.70;1.00;;;;;;5054084;28;20194;-75
2020/12/03 05:14:49;;;;;;;11.30;5.05;;;2.70;1.00;;;;;;5054917;28;20555;-74
2020/12/03 05:17:44;;;;;;;11.13;5.50;;;2.80;1.00;;;;;;5071470;28;20642;-75
2020/12/03 05:20:18;;;;;;;13.45;6.00;;;2.80;1.00;;;;;;5046001;28;20530;-74
2020/12/03 05:23:07;;;;;;;14.55;6.45;;;2.70;1.00;;;;;;5071237;28;20188;-74
2020/12/03 05:25:46;;;;;;;15.77;6.30;;;2.70;1.00;;;;;;5070117;28;20210;-75
2020/12/03 05:28:35;;;;;;;16.65;6.60;;;2.80;1.00;;;;;;5073425;28;20222;-74
2020/12/03 05:31:21;;;;;;;14.90;5.65;;;2.80;1.00;;;;;;5075923;28;20217;-76
2020/12/03 05:33:47;;;;;;;12.52;5.35;;;2.80;1.00;;;;;;5074925;28;20657;-76
2020/12/03 05:36:28;;;;;;;21.75;6.75;;;2.80;1.00;;;;;;5063492;28;20218;-76
2020/12/03 05:38:59;;;;;;;13.70;5.25;;;2.90;1.00;;;;;;5073291;28;20221;-76
2020/12/03 05:41:38;;;;;;;16.05;6.07;;;2.90;1.00;;;;;;5074255;28;20233;-76
2020/12/03 05:44:42;;;;;;;19.50;6.45;;;2.80;1.00;;;;;;5075340;28;20163;-76
2020/12/03 05:47:24;;;;;;;16.60;6.18;;;2.80;1.00;;;;;;4984060;28;20189;-74
2020/12/03 05:49:57;;;;;;;26.05;7.55;;;2.80;1.00;;;;;;5015207;28;20207;-74
2020/12/03 05:52:32;;;;;;;16.48;6.68;;;2.90;1.00;;;;;;5015062;28;20227;-74
2020/12/03 05:55:05;;;;;;;17.40;6.32;;;2.90;1.00;;;;;;5014991;28;20185;-74
2020/12/03 05:57:41;;;;;;;18.73;7.70;;;2.90;1.00;;;;;;5015059;28;20200;-75
2020/12/03 06:00:26;;;;;;;14.38;6.70;;;2.90;1.00;;;;;;5015239;28;20173;-76
2020/12/03 06:03:01;;;;;;;13.90;5.55;;;2.90;1.00;;;;;;5027694;28;20180;-85
2020/12/03 06:06:00;;;;;;;13.68;5.55;;;3.00;1.00;;;;;;5034970;28;20715;-79
2020/12/03 06:08:45;;;;;;;15.05;5.93;;;2.90;1.00;;;;;;5034658;28;20173;-79
2020/12/03 06:11:53;;;;;;;13.18;5.70;;;2.90;1.00;;;;;;5034677;28;20200;-79
2020/12/03 06:14:40;;;;;;;15.23;6.55;;;2.90;1.00;;;;;;5014602;28;20173;-79
2020/12/03 06:17:20;;;;;;;14.20;5.93;;;2.80;1.00;;;;;;5014995;28;20185;-79
2020/12/03 06:20:20;;;;;;;10.27;3.85;;;2.90;1.00;;;;;;5014673;28;20546;-79
2020/12/03 06:23:00;;;;;;;11.50;5.18;;;2.90;1.00;;;;;;5015710;28;20181;-79
2020/12/03 06:25:45;;;;;;;16.83;6.65;;;2.90;1.00;;;;;;5076167;28;20155;-79
2020/12/03 06:28:50;;;;;;;11.57;5.70;;;2.90;1.00;;;;;;5077197;28;20171;-79
2020/12/03 06:31:34;;;;;;;14.15;4.88;;;3.00;1.00;;;;;;5032181;28;20196;-78
2020/12/03 06:34:15;;;;;;;16.52;6.22;;;3.00;1.00;;;;;;5033906;28;20222;-78
2020/12/03 06:36:55;;;;;;;13.52;6.20;;;2.90;1.00;;;;;;5030075;28;20188;-78
2020/12/03 06:39:48;;;;;;;8.43;4.97;;;2.90;1.00;;;;;;5031400;28;20211;-79
2020/12/03 06:42:42;;;;;;;12.38;5.68;;;2.90;1.00;;;;;;5033897;28;20177;-78
2020/12/03 06:45:34;;;;;;;9.95;4.80;;;2.90;1.00;;;;;;5033935;28;20184;-79
2020/12/03 06:48:19;;;;;;;8.77;4.72;;;3.00;1.00;;;;;;5016627;28;20180;-75
2020/12/03 06:51:20;;;;;;;7.22;4.25;;;2.90;1.00;;;;;;5025675;28;20181;-75
2020/12/03 06:54:04;;;;;;;11.32;5.40;;;2.90;1.00;;;;;;5015131;28;20192;-75
2020/12/03 06:57:06;;;;;;;10.45;4.68;;;2.90;1.00;;;;;;5033492;28;20263;-74
2020/12/03 06:59:49;;;;;;;13.20;5.28;;;2.90;1.00;;;;;;5020283;28;20246;-75
2020/12/03 07:02:27;;;;;;;10.63;5.28;;;2.90;1.00;;;;;;5033860;28;20601;-77
2020/12/03 07:05:14;;;;;;;9.88;5.70;;;2.90;1.00;;;;;;5033406;28;20161;-77
2020/12/03 07:07:49;;;;;;;10.40;6.38;;;3.00;1.00;;;;;;5036097;28;20190;-77
2020/12/03 07:10:52;;;;;;;11.27;4.90;;;3.00;1.00;;;;;;5086971;28;20183;-77
2020/12/03 07:13:32;;;;;;;13.15;4.90;;;3.00;1.00;;;;;;5013484;28;20177;-77
2020/12/03 07:16:21;;;;;;;9.77;4.95;;;3.00;1.00;;;;;;5013664;28;20548;-77
2020/12/03 07:19:17;;;;;;;11.27;5.28;;;3.00;1.00;;;;;;5013597;28;20204;-77
2020/12/03 07:22:08;;;;;;;8.90;4.65;;;3.00;1.00;;;;;;5013876;28;20177;-77
2020/12/03 07:24:35;;;;;;;9.40;4.50;;;3.00;1.00;;;;;;4996743;28;20257;-77
2020/12/03 07:27:09;;;;;;;12.77;5.82;;;3.10;1.00;;;;;;4993866;28;20208;-77
2020/12/03 07:30:00;;;;;;;10.20;4.60;;;3.10;1.00;;;;;;5001229;28;20603;-77
2020/12/03 07:32:44;;;;;;;12.73;5.50;;;3.10;1.00;;;;;;5012520;28;20644;-74
2020/12/03 07:35:28;;;;;;;10.00;5.35;;;3.10;1.00;;;;;;4999077;28;20209;-74
2020/12/03 07:38:11;;;;;;;10.20;5.43;;;3.10;1.00;;;;;;5013020;28;20311;-75
2020/12/03 07:40:37;;;;;;;19.13;6.90;;;3.10;1.00;;;;;;5013069;28;20184;-75
2020/12/03 07:43:27;;;;;;;10.77;5.60;;;3.10;1.00;;;;;;5013070;28;20162;-74
2020/12/03 07:46:28;;;;;;;10.60;5.75;;;3.20;1.00;;;;;;5012789;28;20188;-75
2020/12/03 07:49:05;;;;;;;14.85;6.18;;;3.10;1.00;;;;;;5074601;28;20175;-75
2020/12/03 07:51:31;;;;;;;13.27;5.40;;;3.10;1.00;;;;;;5084016;28;20174;-75
2020/12/03 07:54:15;;;;;;;11.70;5.32;;;3.00;1.00;;;;;;5094815;28;20175;-75
2020/12/03 07:56:51;;;;;;;14.82;5.60;;;3.10;1.00;;;;;;5074489;28;20579;-75
2020/12/03 07:59:33;;;;;;;14.63;6.10;;;3.10;1.00;;;;;;5076395;28;20619;-75
2020/12/03 08:02:01;;;;;;;15.52;5.97;;;3.20;1.00;;;;;;5079665;28;20643;-75
2020/12/03 08:04:34;;;;;;;19.00;7.38;;;3.10;1.00;;;;;;5091282;28;20631;-75
2020/12/03 08:07:02;;;;;;;14.20;5.82;;;3.20;1.00;;;;;;5099871;28;20687;-75
2020/12/03 08:09:45;;;;;;;15.60;6.95;;;3.20;1.00;;;;;;5083357;28;20179;-75
2020/12/03 08:12:19;;;;;;;13.90;6.35;;;3.20;1.00;;;;;;5094631;28;20159;-75
2020/12/03 08:14:53;;;;;;;19.15;7.95;;;3.20;1.00;;;;;;5094529;28;20161;-75
2020/12/03 08:17:21;;;;;;;16.48;6.93;;;3.30;1.00;;;;;;5074381;28;20229;-75
2020/12/03 08:20:02;;;;;;;17.58;7.70;;;3.40;1.00;;;;;;5085536;28;20183;-75
2020/12/03 08:22:44;;;;;;;15.70;7.18;;;3.40;1.00;;;;;;5092126;28;20179;-74
2020/12/03 08:25:21;;;;;;;18.13;7.60;;;3.40;1.00;;;;;;5076363;28;20228;-75
2020/12/03 08:27:53;;;;;;;17.38;7.57;;;3.40;1.00;;;;;;5088435;28;20174;-75
2020/12/03 08:30:34;;;;;;;16.88;7.70;;;3.40;1.00;;;;;;5072685;28;20707;-75
2020/12/03 08:33:18;;;;;;;17.75;7.15;;;3.50;1.00;;;;;;5071793;28;20200;-77
2020/12/03 08:35:54;;;;;;;16.88;7.68;;;3.60;1.00;;;;;;5072671;28;20191;-76
2020/12/03 08:38:23;;;;;;;20.67;9.57;;;3.60;1.00;;;;;;5076473;28;20536;-76
2020/12/03 08:40:50;;;;;;;17.65;8.30;;;3.60;1.00;;;;;;5076933;28;20630;-77
2020/12/03 08:43:17;;;;;;;18.60;8.00;;;3.50;1.00;;;;;;5093108;28;20224;-76
2020/12/03 08:46:04;;;;;;;23.25;8.35;;;3.60;1.00;;;;;;5093285;28;20617;-76
2020/12/03 08:48:37;;;;;;;17.60;8.75;;;3.70;1.00;;;;;;5085903;28;20205;-76
2020/12/03 08:51:06;;;;;;;17.90;8.27;;;3.70;1.00;;;;;;5072882;28;20182;-77
2020/12/03 08:53:33;;;;;;;20.50;7.75;;;3.70;1.00;;;;;;5071576;28;20199;-76
2020/12/03 08:56:17;;;;;;;17.90;7.85;;;3.70;1.00;;;;;;5087791;28;20179;-76
2020/12/03 08:58:54;;;;;;;19.92;8.48;;;3.80;1.00;;;;;;5081951;28;20230;-77
2020/12/03 09:01:22;;;;;;;16.38;7.30;;;3.90;1.00;;;;;;5089717;28;20185;-77
2020/12/03 09:03:48;;;;;;;19.42;8.55;;;3.90;1.00;;;;;;5093172;28;20182;-75
2020/12/03 09:06:14;;;;;;;15.70;8.32;;;4.00;1.00;;;;;;5092868;28;20157;-75
2020/12/03 09:08:40;;;;;;;19.30;8.23;;;4.00;1.00;;;;;;5090615;28;20166;-75
2020/12/03 09:11:07;;;;;;;24.73;9.30;;;4.00;1.00;;;;;;5092184;28;20162;-75
2020/12/03 09:13:33;;;;;;;22.02;9.02;;;4.00;1.00;;;;;;5092770;28;20173;-75
2020/12/03 09:15:59;;;;;;;20.90;9.00;;;;;;;;;;5073343;28;20195;-75
2020/12/03 09:18:25;;;;;;;20.67;9.55;;;4.00;1.00;;;;;;5072857;28;20230;-75
2020/12/03 09:20:50;;;;;;;15.90;8.37;;;4.10;1.00;;;;;;5085187;28;20621;-75
2020/12/03 09:23:24;;;;;;;21.50;8.23;;;4.10;1.00;;;;;;5080526;28;20163;-75
2020/12/03 09:25:51;;;;;;;18.63;8.65;;;4.10;1.00;;;;;;5091758;28;20175;-75
2020/12/03 09:28:18;;;;;;;22.05;9.10;;;4.10;1.00;;;;;;5097972;28;20182;-75
2020/12/03 09:30:46;;;;;;;19.73;8.70;;;4.10;1.00;;;;;;5112849;28;20203;-75
2020/12/03 09:33:19;;;;;;;19.60;8.38;;;4.20;1.00;;;;;;5095119;28;20670;-75
2020/12/03 09:35:46;;;;;;;21.40;9.55;;;4.20;1.00;;;;;;5071065;28;20261;-75
2020/12/03 09:38:15;;;;;;;23.48;9.00;;;4.20;1.00;;;;;;5072026;28;20351;-74
2020/12/03 09:40:45;;;;;;;18.60;7.63;;;4.30;1.00;;;;;;5072926;28;20680;-75
2020/12/03 09:43:14;;;;;;;21.65;8.52;;;4.30;1.00;;;;;;5073948;28;20187;-75
2020/12/03 09:45:43;;;;;;;20.60;9.35;;;4.40;1.00;;;;;;5072468;28;20610;-75
2020/12/03 09:48:13;;;;;;;21.00;9.00;;;4.40;1.00;;;;;;5072564;28;20160;-75
2020/12/03 09:50:42;;;;;;;21.30;9.00;;;4.40;1.00;;;;;;5072318;28;20174;-75
2020/12/03 09:53:20;;;;;;;22.13;8.70;;;4.40;1.00;;;;;;5072045;28;20183;-75
2020/12/03 09:55:47;;;;;;;14.73;7.85;;;4.40;1.00;;;;;;5072921;28;20175;-75
2020/12/03 09:58:20;;;;;;;23.48;9.30;;;4.50;1.00;;;;;;5072830;28;20217;-75
2020/12/03 10:00:48;;;;;;;16.42;7.18;;;4.50;1.00;;;;;;5072138;28;20162;-75
2020/12/03 10:03:14;;;;;;;16.92;8.02;;;;;;;;;;5072550;28;20160;-76
2020/12/03 10:05:53;;;;;;;16.47;8.33;;;4.50;1.00;;;;;;5072022;28;20521;-77
2020/12/03 10:08:31;;;;;;;19.23;7.38;;;4.50;1.00;;;;;;5073127;28;20458;-76
2020/12/03 10:11:11;;;;;;;18.58;8.20;;;4.50;1.00;;;;;;5072095;28;20178;-76
2020/12/03 10:13:55;;;;;;;16.17;7.72;;;4.60;1.00;;;;;;5074775;28;20151;-76
2020/12/03 10:16:23;;;;;;;14.30;6.63;;;4.60;1.00;;;;;;5077759;28;20232;-77
2020/12/03 10:18:54;;;;;;;15.38;7.35;;;4.60;1.00;;;;;;5076467;28;20554;-76
2020/12/03 10:21:23;;;;;;;17.13;7.20;;;4.70;1.00;;;;;;5075432;28;20185;-77
2020/12/03 10:24:10;;;;;;;15.43;7.85;;;4.80;1.00;;;;;;5075394;28;20673;-77
2020/12/03 10:26:42;;;;;;;11.75;6.40;;;4.70;1.00;;;;;;5094600;28;20637;-76
2020/12/03 10:29:32;;;;;;;16.67;6.80;;;4.70;1.00;;;;;;5075847;28;20250;-76
2020/12/03 10:32:25;;;;;;;15.02;6.53;;;4.60;1.00;;;;;;5075341;28;20284;-76
2020/12/03 10:34:56;;;;;;;19.20;7.72;;;4.70;1.00;;;;;;5075006;28;20195;-76
2020/12/03 10:37:27;;;;;;;12.70;6.60;;;4.60;1.00;;;;;;5076381;28;20190;-76
2020/12/03 10:40:09;;;;;;;13.75;5.93;;;4.70;1.00;;;;;;5074747;28;20211;-76
2020/12/03 10:42:44;;;;;;;15.40;8.05;;;4.70;1.00;;;;;;5081769;28;20258;-76
2020/12/03 10:45:15;;;;;;;14.23;6.70;;;4.60;1.00;;;;;;5096480;28;20194;-76
2020/12/03 10:47:56;;;;;;;17.70;7.50;;;4.60;1.00;;;;;;5090727;28;20170;-76
2020/12/03 10:50:49;;;;;;;15.35;7.80;;;4.60;1.00;;;;;;5085644;28;20186;-76
2020/12/03 10:53:19;;;;;;;16.92;7.68;;;4.70;1.00;;;;;;5074876;28;20243;-76
2020/12/03 10:55:54;;;;;;;19.30;7.35;;;4.80;1.00;;;;;;5074917;28;20160;-77
2020/12/03 10:58:23;;;;;;;13.30;6.90;;;4.90;1.00;;;;;;5084091;28;20209;-77
2020/12/03 11:00:49;;;;;;;15.15;7.65;;;4.90;1.00;;;;;;5090550;28;20527;-77
2020/12/03 11:03:22;;;;;;;15.27;7.87;;;5.00;1.00;;;;;;5075064;28;20159;-75
2020/12/03 11:05:48;;;;;;;12.00;6.55;;;5.00;1.00;;;;;;5074653;28;20196;-76
2020/12/03 11:08:15;;;;;;;11.17;5.20;;;4.90;1.00;;;;;;5085584;28;20179;-75
2020/12/03 11:10:42;;;;;;;14.60;5.88;;;4.90;1.00;;;;;;5094900;28;20189;-75
2020/12/03 11:13:08;;;;;;;27.02;8.75;;;4.90;1.00;;;;;;5086728;28;20170;-75
2020/12/03 11:15:34;;;;;;;16.60;7.03;;;7.40;1.00;;;;;;5093431;28;20170;-75
2020/12/03 11:18:03;;;;;;;23.83;8.17;;;4.70;1.00;;;;;;5092714;28;20205;-74
2020/12/03 11:20:31;;;;;;;17.98;8.18;;;4.80;1.00;;;;;;5094185;28;20911;-75
2020/12/03 11:22:57;;;;;;;15.52;8.27;;;;;;;;;;5094531;28;20162;-75
2020/12/03 11:25:27;;;;;;;21.83;8.87;;;5.00;1.00;;;;;;5093887;28;20166;-75
2020/12/03 11:27:54;;;;;;;15.10;7.95;;;5.00;1.00;;;;;;5091299;28;20503;-74
2020/12/03 11:30:23;;;;;;;19.90;9.10;;;5.00;1.00;;;;;;5074375;28;20186;-75
2020/12/03 11:32:57;;;;;;;21.50;9.40;;;5.00;1.00;;;;;;5074092;28;20618;-76
2020/12/03 11:35:32;;;;;;;15.68;7.88;;;5.00;1.00;;;;;;5076385;28;20183;-75
2020/12/03 11:38:03;;;;;;;17.42;8.65;;;5.10;1.00;;;;;;5071028;28;20707;-75
2020/12/03 11:41:04;;;;;;;21.48;8.57;;;5.10;1.00;;;;;;5082573;28;20291;-75
2020/12/03 11:48:56;;;;;;;22.63;9.50;;;5.40;1.00;;;;;;5075343;28;20178;-76
2020/12/03 11:51:33;;;;;;;25.07;9.10;;;5.40;1.00;;;;;;5085012;28;20451;-75
2020/12/03 11:54:02;;;;;;;14.77;7.00;;;5.50;1.00;;;;;;5093717;28;20467;-76
2020/12/03 11:56:34;;;;;;;17.63;8.43;;;5.50;1.00;;;;;;5095078;28;20161;-76
2020/12/03 11:59:21;;;;;;;17.85;8.02;;;5.50;1.00;;;;;;5092815;28;20436;-76
2020/12/03 12:01:59;;;;;;;16.30;7.93;;;5.60;1.00;;;;;;5074727;28;20155;-76
2020/12/03 12:04:41;;;;;;;21.30;9.10;;;5.70;1.00;;;;;;5074366;28;20172;-76
2020/12/03 12:12:08;;;;;;;16.57;7.90;;;5.70;1.00;;;;;;5073557;28;20495;-76
2020/12/03 12:14:33;;;;;;;16.10;7.90;;;5.70;1.00;;;;;;5073483;28;20842;-76
2020/12/03 12:16:59;;;;;;;22.63;8.17;;;5.70;1.00;;;;;;5073411;28;20163;-75
2020/12/03 12:19:26;;;;;;;14.20;7.50;;;5.70;1.00;;;;;;5073707;28;20695;-74
2020/12/03 12:21:54;;;;;;;17.40;7.38;;;5.70;1.00;;;;;;5084522;28;20362;-74
2020/12/03 12:24:19;;;;;;;13.55;7.65;;;5.70;1.00;;;;;;5073268;28;20155;-74
2020/12/03 12:26:45;;;;;;;14.97;7.13;;;5.70;1.00;;;;;;5083473;28;20585;-74
2020/12/03 12:29:11;;;;;;;19.43;8.20;;;5.80;1.00;;;;;;5073245;28;20191;-75
2020/12/03 12:31:37;;;;;;;13.43;7.17;;;5.80;1.00;;;;;;5072973;28;20174;-75
2020/12/03 12:34:03;;;;;;;15.60;7.07;;;;;;;;;;5073511;28;20393;-74
2020/12/03 12:36:29;;;;;;;14.80;7.63;;;;;;;;;;5072309;28;20216;-75
2020/12/03 12:38:55;;;;;;;14.38;7.50;;;5.90;1.00;;;;;;5085550;28;20213;-75
2020/12/03 12:41:21;;;;;;;18.40;7.30;;;6.00;1.00;;;;;;5082875;28;20643;-75
2020/12/03 12:43:46;;;;;;;13.87;6.20;;;6.10;1.00;;;;;;5076527;28;20441;-75
2020/12/03 12:46:12;;;;;;;13.47;6.83;;;6.00;1.00;;;;;;5091289;28;20162;-75
2020/12/03 12:48:40;;;;;;;18.27;6.73;;;6.00;1.00;;;;;;5087609;28;20166;-74
2020/12/03 12:51:07;;;;;;;17.33;7.40;;;6.00;1.00;;;;;;5092590;28;20178;-74
2020/12/03 12:53:32;;;;;;;17.40;7.50;;;5.90;1.00;;;;;;5089355;28;20417;-74
2020/12/03 12:55:58;;;;;;;16.30;6.80;;;5.90;1.00;;;;;;5082148;28;20413;-74
2020/12/03 12:58:24;;;;;;;13.90;7.10;;;5.90;1.00;;;;;;5075091;28;20191;-74
2020/12/03 13:00:49;;;;;;;14.43;5.90;;;5.90;1.00;;;;;;5073343;28;20171;-74
2020/12/03 13:03:15;;;;;;;12.50;6.37;;;6.00;1.00;;;;;;5086277;28;20185;-73
2020/12/03 13:05:41;;;;;;;12.60;5.67;;;6.00;1.00;;;;;;5085139;28;20170;-73
2020/12/03 13:08:07;;;;;;;12.30;5.70;;;6.00;1.00;;;;;;5078966;28;20201;-73
2020/12/03 13:10:32;;;;;;;13.10;5.73;;;6.10;1.00;;;;;;5083264;28;20175;-73
2020/12/03 13:13:08;;;;;;;9.83;5.30;;;6.10;1.00;;;;;;5073340;28;20187;-74
2020/12/03 13:15:34;;;;;;;10.10;6.20;;;6.20;1.00;;;;;;5093312;28;20443;-74
2020/12/03 13:18:00;;;;;;;13.57;5.60;;;6.20;1.00;;;;;;5091904;28;20217;-74
2020/12/03 13:20:50;;;;;;;9.63;4.73;;;6.10;1.00;;;;;;5098803;28;20189;-76
2020/12/03 13:23:20;;;;;;;13.77;5.85;;;6.10;1.00;;;;;;5085247;28;20166;-77
2020/12/03 13:26:02;;;;;;;10.37;5.60;;;6.00;1.00;;;;;;5081876;28;20549;-77
2020/12/03 13:28:32;;;;;;;12.93;5.97;;;6.00;1.00;;;;;;5081216;28;20454;-77
2020/12/03 13:30:58;;;;;;;12.20;5.82;;;5.90;1.00;;;;;;5088902;28;20896;-77
2020/12/03 13:33:32;;;;;;;10.10;5.50;;;5.70;1.00;;;;;;5086084;28;20183;-76
2020/12/03 13:36:02;;;;;;;9.00;4.80;;;5.70;1.00;;;;;;5072260;28;20278;-74
2020/12/03 13:38:28;;;;;;;11.95;4.93;;;5.70;1.00;;;;;;5086444;28;20570;-74
2020/12/03 13:40:54;;;;;;;11.87;5.07;;;5.70;1.00;;;;;;5093300;28;20673;-73
2020/12/03 13:43:19;;;;;;;12.37;5.50;;;5.70;1.00;;;;;;5084597;28;20189;-74
2020/12/03 13:45:47;;;;;;;14.33;5.50;;;;;;;;;;5086094;28;20163;-74